createdAt,value
2023-04-15T00:01:51.160Z,10.00
2023-04-15T00:04:17.687Z,10.00
2023-04-15T00:06:51.367Z,10.06
2023-04-15T00:09:18.914Z,10.02
2023-04-15T00:11:46.237Z,9.75
2023-04-15T00:14:13.619Z,9.85
2023-04-15T00:16:40.102Z,9.77
2023-04-15T00:19:06.511Z,9.87
2023-04-15T00:21:33.222Z,9.81
2023-04-15T00:23:59.584Z,9.88
2023-04-15T00:26:25.958Z,9.94
2023-04-15T00:28:52.379Z,9.95
2023-04-15T00:31:18.881Z,9.93
2023-04-15T00:33:45.917Z,9.94
2023-04-15T00:36:13.019Z,9.93
2023-04-15T00:38:39.413Z,9.84
2023-04-15T00:41:05.897Z,9.93
2023-04-15T00:43:42.388Z,9.95
2023-04-15T00:46:10.515Z,9.90
2023-04-15T00:48:43.766Z,9.95
2023-04-15T00:51:10.625Z,9.97
2023-04-15T00:53:37.004Z,9.99
2023-04-15T00:56:03.578Z,10.00
2023-04-15T00:58:29.944Z,9.97
2023-04-15T01:00:57.199Z,10.00
2023-04-15T01:03:23.682Z,10.00
2023-04-15T01:05:50.362Z,10.01
2023-04-15T01:08:16.896Z,10.04
2023-04-15T01:10:43.928Z,9.98
2023-04-15T01:13:10.284Z,9.95
2023-04-15T01:15:36.665Z,9.98
2023-04-15T01:18:03.137Z,9.96
2023-04-15T01:20:33.703Z,9.94
2023-04-15T01:23:00.421Z,9.97
2023-04-15T01:25:34.693Z,9.95
2023-04-15T01:28:01.305Z,9.94
2023-04-15T01:30:27.884Z,9.95
2023-04-15T01:32:54.400Z,9.98
2023-04-15T01:35:21.483Z,9.97
2023-04-15T01:37:48.946Z,9.97
2023-04-15T01:40:17.295Z,9.95
2023-04-15T01:42:44.570Z,9.94
2023-04-15T01:45:11.448Z,9.97
2023-04-15T01:47:38.124Z,9.98
2023-04-15T01:50:04.990Z,9.98
2023-04-15T01:52:32.056Z,9.95
2023-04-15T01:54:58.581Z,9.95
2023-04-15T01:57:25.138Z,9.94
2023-04-15T01:59:51.545Z,9.95
2023-04-15T02:02:17.937Z,9.96
2023-04-15T02:04:44.741Z,9.98
2023-04-15T02:07:11.310Z,10.00
2023-04-15T02:09:38.581Z,9.85
2023-04-15T02:12:07.293Z,9.88
2023-04-15T02:14:38.492Z,9.87
2023-04-15T02:17:08.222Z,9.88
2023-04-15T02:19:35.597Z,9.89
2023-04-15T02:22:03.280Z,9.93
2023-04-15T02:24:30.628Z,9.96
2023-04-15T02:26:57.384Z,9.98
2023-04-15T02:29:23.748Z,9.98
2023-04-15T02:31:50.186Z,10.01
2023-04-15T02:34:16.619Z,10.02
2023-04-15T02:36:45.541Z,10.03
2023-04-15T02:39:14.726Z,10.04
2023-04-15T02:41:43.406Z,10.02
2023-04-15T02:44:18.944Z,10.03
2023-04-15T02:46:53.543Z,10.02
2023-04-15T02:49:25.546Z,10.03
2023-04-15T02:51:59.934Z,10.02
2023-04-15T02:54:28.644Z,10.01
2023-04-15T02:56:58.009Z,10.00
2023-04-15T02:59:30.961Z,9.83
2023-04-15T03:02:00.864Z,9.90
2023-04-15T03:04:30.085Z,9.88
2023-04-15T03:06:56.831Z,9.89
2023-04-15T03:09:23.921Z,9.91
2023-04-15T03:11:53.477Z,9.91
2023-04-15T03:14:20.751Z,9.95
2023-04-15T03:16:47.937Z,9.99
2023-04-15T03:19:16.615Z,10.02
2023-04-15T03:21:43.864Z,10.02
2023-04-15T03:24:10.607Z,10.04
2023-04-15T03:26:37.035Z,10.07
2023-04-15T03:29:10.140Z,10.09
2023-04-15T03:31:36.704Z,10.08
2023-04-15T03:34:03.102Z,10.09
2023-04-15T03:36:32.834Z,10.07
2023-04-15T03:38:59.862Z,10.04
2023-04-15T03:41:28.402Z,10.04
2023-04-15T03:43:54.856Z,10.05
2023-04-15T03:46:21.375Z,10.03
2023-04-15T03:48:48.267Z,10.03
2023-04-15T03:51:14.679Z,10.07
2023-04-15T03:53:41.081Z,10.07
2023-04-15T03:56:07.507Z,10.07
2023-04-15T03:58:33.871Z,10.07
2023-04-15T04:01:00.252Z,10.06
2023-04-15T04:03:27.429Z,10.07
2023-04-15T04:05:54.036Z,10.03
2023-04-15T04:08:21.653Z,10.03
2023-04-15T04:10:48.002Z,10.02
2023-04-15T04:13:14.347Z,10.00
2023-04-15T04:15:40.796Z,10.00
2023-04-15T04:18:07.276Z,9.99
2023-04-15T04:20:34.023Z,9.94
2023-04-15T04:23:00.372Z,10.00
2023-04-15T04:25:27.413Z,10.03
2023-04-15T04:27:53.792Z,10.01
2023-04-15T04:30:20.147Z,10.03
2023-04-15T04:32:46.577Z,10.01
2023-04-15T04:35:12.945Z,10.00
2023-04-15T04:37:39.332Z,9.97
2023-04-15T04:40:06.444Z,9.78
2023-04-15T04:42:32.894Z,9.78
2023-04-15T04:44:59.257Z,9.62
2023-04-15T04:47:25.803Z,9.75
2023-04-15T04:49:52.182Z,9.74
2023-04-15T04:52:18.546Z,9.79
2023-04-15T04:54:45.072Z,9.78
2023-04-15T04:57:13.450Z,9.86
2023-04-15T04:59:40.090Z,9.93
2023-04-15T05:02:07.231Z,9.88
2023-04-15T05:04:34.378Z,9.82
2023-04-15T05:07:00.757Z,9.89
2023-04-15T05:09:28.064Z,9.96
2023-04-15T05:11:54.422Z,9.98
2023-04-15T05:14:22.844Z,9.82
2023-04-15T05:16:50.252Z,9.70
2023-04-15T05:19:16.599Z,9.66
2023-04-15T05:21:43.010Z,9.79
2023-04-15T05:24:09.389Z,9.60
2023-04-15T05:26:35.895Z,9.66
2023-04-15T05:29:02.715Z,9.72
2023-04-15T05:31:29.316Z,9.85
2023-04-15T05:33:55.731Z,9.65
2023-04-15T05:36:22.104Z,9.62
2023-04-15T05:38:48.457Z,9.48
2023-04-15T05:41:17.175Z,9.61
2023-04-15T05:43:45.658Z,9.70
2023-04-15T05:46:12.028Z,9.64
2023-04-15T05:48:38.462Z,9.75
2023-04-15T05:51:05.188Z,9.86
2023-04-15T05:53:31.889Z,9.92
2023-04-15T05:55:58.300Z,9.95
2023-04-15T05:58:24.678Z,9.89
2023-04-15T06:00:51.200Z,9.89
2023-04-15T06:03:17.959Z,9.99
2023-04-15T06:05:45.424Z,9.90
2023-04-15T06:08:12.416Z,9.68
2023-04-15T06:10:38.892Z,9.81
2023-04-15T06:13:05.768Z,9.91
2023-04-15T06:15:32.388Z,9.99
2023-04-15T06:17:59.238Z,10.05
2023-04-15T06:20:26.012Z,10.02
2023-04-15T06:22:52.646Z,10.03
2023-04-15T06:25:20.263Z,9.99
2023-04-15T06:27:46.764Z,9.98
2023-04-15T06:30:13.451Z,10.08
2023-04-15T06:32:42.970Z,10.00
2023-04-15T06:35:09.928Z,9.98
2023-04-15T06:37:36.361Z,10.04
2023-04-15T06:40:06.226Z,9.98
2023-04-15T06:42:32.994Z,10.02
2023-04-15T06:44:59.352Z,9.96
2023-04-15T06:47:26.146Z,10.06
2023-04-15T06:49:52.525Z,9.93
2023-04-15T06:52:19.338Z,9.94
2023-04-15T06:54:45.791Z,9.96
2023-04-15T06:57:12.227Z,9.78
2023-04-15T06:59:38.657Z,9.78
2023-04-15T07:02:05.105Z,9.91
2023-04-15T07:04:31.677Z,9.92
2023-04-15T07:06:58.192Z,9.86
2023-04-15T07:09:24.734Z,9.81
2023-04-15T07:11:51.524Z,9.92
2023-04-15T07:14:18.135Z,10.07
2023-04-15T07:16:44.915Z,10.17
2023-04-15T07:19:11.692Z,10.19
2023-04-15T07:21:39.459Z,10.14
2023-04-15T07:24:08.549Z,10.02
2023-04-15T07:26:34.886Z,10.01
2023-04-15T07:29:01.749Z,10.02
2023-04-15T07:31:28.510Z,10.17
2023-04-15T07:33:55.093Z,10.23
2023-04-15T07:36:21.478Z,10.26
2023-04-15T07:38:54.164Z,10.33
2023-04-15T07:41:21.658Z,10.36
2023-04-15T07:43:48.723Z,10.34
2023-04-15T07:46:15.380Z,10.33
2023-04-15T07:48:42.643Z,10.41
2023-04-15T07:51:10.713Z,10.44
2023-04-15T07:53:37.282Z,10.44
2023-04-15T07:56:03.814Z,10.40
2023-04-15T07:58:37.161Z,10.34
2023-04-15T08:01:06.791Z,10.43
2023-04-15T08:03:33.729Z,10.55
2023-04-15T08:06:00.595Z,10.58
2023-04-15T08:08:27.487Z,10.63
2023-04-15T08:10:53.893Z,10.53
2023-04-15T08:13:20.784Z,10.54
2023-04-15T08:16:13.689Z,10.53
2023-04-15T08:18:40.069Z,10.62
2023-04-15T08:21:06.627Z,10.65
2023-04-15T08:23:33.505Z,10.71
2023-04-15T08:25:59.932Z,10.69
2023-04-15T08:28:26.307Z,10.62
2023-04-15T08:30:53.159Z,10.66
2023-04-15T08:33:19.531Z,10.78
2023-04-15T08:35:46.516Z,10.85
2023-04-15T08:38:12.908Z,10.92
2023-04-15T08:40:44.220Z,10.85
2023-04-15T08:43:15.722Z,10.84
2023-04-15T08:45:44.023Z,10.80
2023-04-15T08:48:16.497Z,10.85
2023-04-15T08:50:43.312Z,10.77
2023-04-15T08:53:11.597Z,10.74
2023-04-15T08:55:45.816Z,10.82
2023-04-15T08:58:16.422Z,10.64
2023-04-15T09:00:42.968Z,10.64
2023-04-15T09:03:09.754Z,10.66
2023-04-15T09:05:37.322Z,10.75
2023-04-15T09:08:05.302Z,10.82
2023-04-15T09:10:33.469Z,10.94
2023-04-15T09:13:03.207Z,11.03
2023-04-15T09:15:30.316Z,11.09
2023-04-15T09:17:57.053Z,11.04
2023-04-15T09:20:23.675Z,11.28
2023-04-15T09:22:51.083Z,11.50
2023-04-15T09:25:24.258Z,11.72
2023-04-15T09:27:52.583Z,11.82
2023-04-15T09:30:19.033Z,11.96
2023-04-15T09:32:54.025Z,12.07
2023-04-15T09:35:22.226Z,12.08
2023-04-15T09:37:49.829Z,12.04
2023-04-15T09:40:32.534Z,12.05
2023-04-15T09:42:59.432Z,12.15
2023-04-15T09:45:28.919Z,12.42
2023-04-15T09:48:14.419Z,12.69
2023-04-15T09:50:42.665Z,12.87
2023-04-15T09:53:20.076Z,13.04
2023-04-15T09:55:50.238Z,12.96
2023-04-15T09:58:33.234Z,13.00
2023-04-15T10:01:01.796Z,12.98
2023-04-15T10:03:35.330Z,12.99
2023-04-15T10:06:03.404Z,13.37
2023-04-15T10:08:32.773Z,13.63
2023-04-15T10:11:01.840Z,13.73
2023-04-15T10:13:33.245Z,13.72
2023-04-15T10:16:07.479Z,13.90
2023-04-15T10:18:40.594Z,14.15
2023-04-15T10:21:09.091Z,14.27
2023-04-15T10:23:35.946Z,14.05
2023-04-15T10:26:04.355Z,14.14
2023-04-15T10:28:30.829Z,14.29
2023-04-15T10:30:59.886Z,14.63
2023-04-15T10:33:28.568Z,14.97
2023-04-15T10:35:55.829Z,15.19
2023-04-15T10:38:40.607Z,15.31
2023-04-15T10:41:24.182Z,15.60
2023-04-15T10:43:53.151Z,17.50
2023-04-15T10:46:41.628Z,19.94
2023-04-15T10:49:12.384Z,21.28
2023-04-15T10:51:44.284Z,21.39
2023-04-15T10:54:24.561Z,20.85
2023-04-15T10:56:52.601Z,21.43
2023-04-15T10:59:20.411Z,20.37
2023-04-15T11:01:53.970Z,18.67
2023-04-15T11:04:56.295Z,17.48
2023-04-15T11:07:48.546Z,16.66
2023-04-15T11:10:17.687Z,16.07
2023-04-15T11:12:45.526Z,15.96
2023-04-15T11:15:30.957Z,16.08
2023-04-15T11:17:58.662Z,16.66
2023-04-15T11:20:25.712Z,15.95
2023-04-15T11:22:53.640Z,15.40
2023-04-15T11:25:40.252Z,14.98
2023-04-15T11:28:07.588Z,14.87
2023-04-15T11:30:36.845Z,14.69
2023-04-15T11:33:06.083Z,14.44
2023-04-15T11:35:32.995Z,14.16
2023-04-15T11:38:03.836Z,14.00
2023-04-15T11:40:31.440Z,14.04
2023-04-15T11:43:21.069Z,14.27
2023-04-15T11:45:59.090Z,14.53
2023-04-15T11:48:28.180Z,16.01
2023-04-15T11:50:57.097Z,17.15
2023-04-15T11:53:24.572Z,17.34
2023-04-15T11:55:52.835Z,16.38
2023-04-15T11:58:24.347Z,15.98
2023-04-15T12:00:57.688Z,15.78
2023-04-15T12:03:38.377Z,15.49
2023-04-15T12:06:08.670Z,15.56
2023-04-15T12:09:06.310Z,15.14
2023-04-15T12:11:44.751Z,14.80
2023-04-15T12:14:12.810Z,14.52
2023-04-15T12:16:48.863Z,14.24
2023-04-15T12:19:24.372Z,14.11
2023-04-15T12:21:51.310Z,14.09
2023-04-15T12:24:23.877Z,14.11
2023-04-15T12:26:57.999Z,14.10
2023-04-15T12:29:28.735Z,14.05
2023-04-15T12:32:07.707Z,14.03
2023-04-15T12:34:42.431Z,14.02
2023-04-15T12:37:11.749Z,14.04
2023-04-15T12:39:44.707Z,14.05
2023-04-15T12:42:11.946Z,14.08
2023-04-15T12:44:42.547Z,13.98
2023-04-15T12:47:10.753Z,13.91
2023-04-15T12:49:37.753Z,13.94
2023-04-15T12:52:04.454Z,14.03
2023-04-15T12:54:31.746Z,14.06
2023-04-15T12:56:59.086Z,14.01
2023-04-15T12:59:25.856Z,14.06
2023-04-15T13:01:53.449Z,14.04
2023-04-15T13:04:20.699Z,14.08
2023-04-15T13:06:48.923Z,14.06
2023-04-15T13:09:15.683Z,14.09
2023-04-15T13:11:43.114Z,14.10
2023-04-15T13:14:12.766Z,14.14
2023-04-15T13:16:39.171Z,14.14
2023-04-15T13:19:06.133Z,14.11
2023-04-15T13:21:35.147Z,14.11
2023-04-15T13:24:02.410Z,14.14
2023-04-15T13:26:29.165Z,14.19
2023-04-15T13:28:56.046Z,14.21
2023-04-15T13:31:22.503Z,14.37
2023-04-15T13:33:55.732Z,14.39
2023-04-15T13:36:29.329Z,14.37
2023-04-15T13:38:55.849Z,14.45
2023-04-15T13:41:22.655Z,15.07
2023-04-15T13:43:49.030Z,16.28
2023-04-15T13:46:15.515Z,16.30
2023-04-15T13:48:41.979Z,16.34
2023-04-15T13:51:08.380Z,16.27
2023-04-15T13:53:38.901Z,16.79
2023-04-15T13:56:09.969Z,17.77
2023-04-15T13:58:37.261Z,18.08
2023-04-15T14:01:05.825Z,18.28
2023-04-15T14:03:33.717Z,18.50
2023-04-15T14:06:00.576Z,18.67
2023-04-15T14:08:27.133Z,18.57
2023-04-15T14:10:53.500Z,18.22
2023-04-15T14:13:19.922Z,17.90
2023-04-15T14:15:47.462Z,17.41
2023-04-15T14:18:13.851Z,16.86
2023-04-15T14:20:40.561Z,16.62
2023-04-15T14:23:07.002Z,16.55
2023-04-15T14:25:34.181Z,16.30
2023-04-15T14:28:01.632Z,16.06
2023-04-15T14:30:28.175Z,15.91
2023-04-15T14:32:54.755Z,15.78
2023-04-15T14:35:21.163Z,15.87
2023-04-15T14:37:47.751Z,15.82
2023-04-15T14:40:14.164Z,15.72
2023-04-15T14:42:40.513Z,15.66
2023-04-15T14:45:07.423Z,15.70
2023-04-15T14:47:33.838Z,15.82
2023-04-15T14:50:00.585Z,15.68
2023-04-15T14:52:26.955Z,15.57
2023-04-15T14:54:53.329Z,15.37
2023-04-15T14:57:19.711Z,15.41
2023-04-15T14:59:46.309Z,15.46
2023-04-15T15:02:17.272Z,15.56
2023-04-15T15:04:52.903Z,15.36
2023-04-15T15:07:19.426Z,15.20
2023-04-15T15:09:46.096Z,15.10
2023-04-15T15:12:12.504Z,15.01
2023-04-15T15:14:38.862Z,14.79
2023-04-15T15:17:05.213Z,14.78
2023-04-15T15:19:31.714Z,14.80
2023-04-15T15:21:58.075Z,14.76
2023-04-15T15:24:24.488Z,14.77
2023-04-15T15:26:51.299Z,14.77
2023-04-15T15:29:17.685Z,14.85
2023-04-15T15:31:44.076Z,14.97
2023-04-15T15:34:10.486Z,14.91
2023-04-15T15:36:36.858Z,14.75
2023-04-15T15:39:04.904Z,14.49
2023-04-15T15:41:33.314Z,14.36
2023-04-15T15:43:59.951Z,14.33
2023-04-15T15:46:28.124Z,14.34
2023-04-15T15:48:55.273Z,14.37
2023-04-15T15:51:21.673Z,14.34
2023-04-15T15:53:48.043Z,14.16
2023-04-15T15:56:14.532Z,14.08
2023-04-15T15:58:43.731Z,13.90
2023-04-15T16:01:10.973Z,13.84
2023-04-15T16:03:37.563Z,13.73
2023-04-15T16:06:04.595Z,13.70
2023-04-15T16:08:30.949Z,13.65
2023-04-15T16:10:58.454Z,13.59
2023-04-15T16:13:24.956Z,13.61
2023-04-15T16:15:51.333Z,13.62
2023-04-15T16:18:18.216Z,13.56
2023-04-15T16:20:44.615Z,13.59
2023-04-15T16:23:16.342Z,13.59
2023-04-15T16:25:44.439Z,13.54
2023-04-15T16:28:23.096Z,13.61
2023-04-15T16:30:52.080Z,13.61
2023-04-15T16:33:18.563Z,13.54
2023-04-15T16:35:44.931Z,13.51
2023-04-15T16:38:11.334Z,13.47
2023-04-15T16:40:38.062Z,13.51
2023-04-15T16:43:07.292Z,13.50
2023-04-15T16:45:33.729Z,13.42
2023-04-15T16:48:00.394Z,13.34
2023-04-15T16:50:27.134Z,13.38
2023-04-15T16:52:54.909Z,13.41
2023-04-15T16:55:21.459Z,13.41
2023-04-15T16:58:02.117Z,13.38
2023-04-15T17:00:30.960Z,13.27
2023-04-15T17:02:57.810Z,13.24
2023-04-15T17:05:24.615Z,13.30
2023-04-15T17:07:50.958Z,13.22
2023-04-15T17:10:17.533Z,13.13
2023-04-15T17:12:43.909Z,12.99
2023-04-15T17:15:10.436Z,12.93
2023-04-15T17:17:36.872Z,12.95
2023-04-15T17:20:04.125Z,12.91
2023-04-15T17:22:30.668Z,12.87
2023-04-15T17:24:57.108Z,12.84
2023-04-15T17:27:24.612Z,12.83
2023-04-15T17:29:50.994Z,12.98
2023-04-15T17:32:17.707Z,12.98
2023-04-15T17:34:50.329Z,12.85
2023-04-15T17:37:17.830Z,12.88
2023-04-15T17:39:44.248Z,12.84
2023-04-15T17:42:11.251Z,12.69
2023-04-15T17:44:37.617Z,12.72
2023-04-15T17:47:08.455Z,12.67
2023-04-15T17:49:37.555Z,12.59
2023-04-15T17:52:04.166Z,12.50
2023-04-15T17:54:30.550Z,12.55
2023-04-15T17:56:57.933Z,12.57
2023-04-15T17:59:24.497Z,12.54
2023-04-15T18:01:51.150Z,12.64
2023-04-15T18:04:17.669Z,12.70
2023-04-15T18:06:44.312Z,12.63
2023-04-15T18:09:11.231Z,12.58
2023-04-15T18:11:39.979Z,12.59
2023-04-15T18:14:26.621Z,12.64
2023-04-15T18:17:00.382Z,12.64
2023-04-15T18:19:27.192Z,12.51
2023-04-15T18:21:53.560Z,12.49
2023-04-15T18:24:19.928Z,12.32
2023-04-15T18:26:48.784Z,12.22
2023-04-15T18:29:15.540Z,12.28
2023-04-15T18:31:45.017Z,12.29
2023-04-15T18:34:11.433Z,12.38
2023-04-15T18:36:37.973Z,12.31
2023-04-15T18:39:08.194Z,12.22
2023-04-15T18:41:41.151Z,12.27
2023-04-15T18:44:10.727Z,12.19
2023-04-15T18:46:37.072Z,12.11
2023-04-15T18:49:04.188Z,12.21
2023-04-15T18:51:30.830Z,12.21
2023-04-15T18:54:03.614Z,12.09
2023-04-15T18:56:30.804Z,12.08
2023-04-15T18:59:08.620Z,11.72
2023-04-15T19:01:43.984Z,11.46
2023-04-15T19:04:11.170Z,11.45
2023-04-15T19:06:37.848Z,11.40
2023-04-15T19:09:04.471Z,11.49
2023-04-15T19:11:31.243Z,11.64
2023-04-15T19:13:57.646Z,11.59
2023-04-15T19:16:24.154Z,11.54
2023-04-15T19:18:50.575Z,11.64
2023-04-15T19:21:17.005Z,11.64
2023-04-15T19:23:43.497Z,11.53
2023-04-15T19:26:11.481Z,11.60
2023-04-15T19:28:41.615Z,11.74
2023-04-15T19:31:08.037Z,11.84
2023-04-15T19:33:34.426Z,11.88
2023-04-15T19:36:12.190Z,11.89
2023-04-15T19:38:42.001Z,11.68
2023-04-15T19:41:10.562Z,11.58
2023-04-15T19:43:37.263Z,11.71
2023-04-15T19:46:03.684Z,11.62
2023-04-15T19:48:30.601Z,11.67
2023-04-15T19:50:57.574Z,11.70
2023-04-15T19:53:25.482Z,11.65
2023-04-15T19:55:51.969Z,11.69
2023-04-15T19:58:18.308Z,11.73
2023-04-15T20:00:44.683Z,11.75
2023-04-15T20:03:11.144Z,11.78
2023-04-15T20:05:37.635Z,11.81
2023-04-15T20:08:04.299Z,11.80
2023-04-15T20:10:31.583Z,11.79
2023-04-15T20:12:58.013Z,11.81
2023-04-15T20:15:28.065Z,11.71
2023-04-15T20:17:54.804Z,11.72
2023-04-15T20:20:21.571Z,11.67
2023-04-15T20:22:48.668Z,11.67
2023-04-15T20:25:15.196Z,11.49
2023-04-15T20:27:41.800Z,11.22
2023-04-15T20:30:08.781Z,11.29
2023-04-15T20:32:35.852Z,11.08
2023-04-15T20:35:04.144Z,10.97
2023-04-15T20:37:32.964Z,11.03
2023-04-15T20:40:00.173Z,10.97
2023-04-15T20:42:27.450Z,11.07
2023-04-15T20:44:53.854Z,11.15
2023-04-15T20:47:20.303Z,11.21
2023-04-15T20:49:47.326Z,11.24
2023-04-15T20:52:13.704Z,11.23
2023-04-15T20:54:40.081Z,11.27
2023-04-15T20:57:06.472Z,11.24
2023-04-15T20:59:34.558Z,11.16
2023-04-15T21:02:01.320Z,11.20
2023-04-15T21:04:27.803Z,11.23
2023-04-15T21:06:54.225Z,11.23
2023-04-15T21:09:20.596Z,10.95
2023-04-15T21:12:00.427Z,11.00
2023-04-15T21:14:27.350Z,11.07
2023-04-15T21:16:53.962Z,11.12
2023-04-15T21:19:20.391Z,11.13
2023-04-15T21:21:47.034Z,11.16
2023-04-15T21:24:19.904Z,10.91
2023-04-15T21:26:49.456Z,10.81
2023-04-15T21:29:15.843Z,10.88
2023-04-15T21:31:42.414Z,10.85
2023-04-15T21:34:14.183Z,10.87
2023-04-15T21:36:46.875Z,10.79
2023-04-15T21:39:13.248Z,10.83
2023-04-15T21:41:39.634Z,10.90
2023-04-15T21:44:14.756Z,10.96
2023-04-15T21:46:46.048Z,10.92
2023-04-15T21:49:20.391Z,10.94
2023-04-15T21:51:47.878Z,10.95
2023-04-15T21:54:14.352Z,10.96
2023-04-15T21:56:42.936Z,11.01
2023-04-15T21:59:09.369Z,11.02
2023-04-15T22:01:35.884Z,10.90
2023-04-15T22:04:04.578Z,10.83
2023-04-15T22:06:31.655Z,10.90
2023-04-15T22:08:58.102Z,10.94
2023-04-15T22:11:30.270Z,10.90
2023-04-15T22:13:57.467Z,10.90
2023-04-15T22:16:27.037Z,10.90
2023-04-15T22:18:54.086Z,10.81
2023-04-15T22:21:20.610Z,10.85
2023-04-15T22:23:48.241Z,10.89
2023-04-15T22:26:14.754Z,10.89
2023-04-15T22:28:41.562Z,10.92
2023-04-15T22:31:08.112Z,10.68
2023-04-15T22:33:34.512Z,10.67
2023-04-15T22:36:01.074Z,10.75
2023-04-15T22:38:27.551Z,10.58
2023-04-15T22:40:54.172Z,10.57
2023-04-15T22:43:20.654Z,10.51
2023-04-15T22:45:50.959Z,10.48
2023-04-15T22:48:18.753Z,10.55
2023-04-15T22:50:45.659Z,10.49
2023-04-15T22:53:12.531Z,10.36
2023-04-15T22:55:38.958Z,10.44
2023-04-15T22:58:05.482Z,10.51
2023-04-15T23:00:31.858Z,10.46
2023-04-15T23:02:58.399Z,10.46
2023-04-15T23:05:24.925Z,10.47
2023-04-15T23:07:51.363Z,10.11
2023-04-15T23:10:17.807Z,10.23
2023-04-15T23:12:44.210Z,10.29
2023-04-15T23:15:11.520Z,10.31
2023-04-15T23:17:37.971Z,10.23
2023-04-15T23:20:04.672Z,10.19
2023-04-15T23:22:31.069Z,10.30
2023-04-15T23:24:57.421Z,10.22
2023-04-15T23:27:23.793Z,10.27
2023-04-15T23:29:50.142Z,10.26
2023-04-15T23:32:16.650Z,10.16
2023-04-15T23:34:43.121Z,10.23
2023-04-15T23:37:09.577Z,10.24
2023-04-15T23:39:36.150Z,10.26
2023-04-15T23:42:03.273Z,10.27
2023-04-15T23:44:29.639Z,10.29
2023-04-15T23:46:56.047Z,10.16
2023-04-15T23:49:22.453Z,10.13
2023-04-15T23:51:48.888Z,10.18
2023-04-15T23:54:15.269Z,10.16
2023-04-15T23:56:41.668Z,10.10
2023-04-15T23:59:08.327Z,9.92
